createdAt,value
2019-01-23T00:00:47.277Z,84.64
2019-01-23T00:01:47.256Z,84.53
2019-01-23T00:02:47.250Z,84.64
2019-01-23T00:03:47.258Z,84.67
2019-01-23T00:04:47.250Z,84.32
2019-01-23T00:05:47.213Z,84.22
2019-01-23T00:06:47.204Z,84.53
2019-01-23T00:07:47.200Z,84.32
2019-01-23T00:08:47.184Z,84.53
2019-01-23T00:09:47.203Z,84.53
2019-01-23T00:10:47.170Z,84.53
2019-01-23T00:11:47.156Z,84.57
2019-01-23T00:12:47.148Z,84.46
2019-01-23T00:13:47.134Z,84.78
2019-01-23T00:14:47.146Z,84.67
2019-01-23T00:15:47.114Z,84.64
2019-01-23T00:16:47.102Z,84.25
2019-01-23T00:17:47.087Z,84.46
2019-01-23T00:18:47.091Z,84.36
2019-01-23T00:19:47.108Z,84.46
2019-01-23T00:20:47.064Z,84.42
2019-01-23T00:21:47.055Z,84.67
2019-01-23T00:22:47.040Z,84.67
2019-01-23T00:23:47.032Z,84.82
2019-01-23T00:24:47.114Z,84.78
2019-01-23T00:25:47.391Z,85.10
2019-01-23T00:26:47.002Z,84.89
2019-01-23T00:27:46.995Z,85.10
2019-01-23T00:28:46.990Z,85.41
2019-01-23T00:29:46.966Z,85.21
2019-01-23T00:30:47.037Z,85.56
2019-01-23T00:31:47.840Z,85.63
2019-01-23T00:32:46.937Z,85.03
2019-01-23T00:33:46.932Z,84.99
2019-01-23T00:34:46.928Z,84.89
2019-01-23T00:35:46.928Z,84.99
2019-01-23T00:36:46.911Z,84.99
2019-01-23T00:37:46.888Z,84.99
2019-01-23T00:38:46.880Z,85.41
2019-01-23T00:39:46.866Z,85.21
2019-01-23T00:40:46.886Z,85.31
2019-01-23T00:41:46.849Z,85.88
2019-01-23T00:42:46.903Z,86.16
2019-01-23T00:43:46.834Z,85.98
2019-01-23T00:44:46.816Z,85.63
2019-01-23T00:45:46.829Z,85.21
2019-01-23T00:46:46.795Z,85.63
2019-01-23T00:47:46.789Z,85.94
2019-01-23T00:48:46.786Z,85.84
2019-01-23T00:49:46.767Z,86.09
2019-01-23T00:50:46.781Z,85.52
2019-01-23T00:51:46.744Z,85.21
2019-01-23T00:52:47.490Z,85.52
2019-01-23T00:53:46.730Z,85.10
2019-01-23T00:54:46.728Z,85.10
2019-01-23T00:55:46.704Z,85.31
2019-01-23T00:56:46.708Z,85.41
2019-01-23T00:57:46.678Z,85.63
2019-01-23T00:58:49.291Z,85.84
2019-01-23T00:59:46.663Z,85.88
2019-01-23T01:00:46.652Z,85.52
2019-01-23T01:01:46.660Z,85.52
2019-01-23T01:02:46.627Z,85.31
2019-01-23T01:03:46.788Z,85.24
2019-01-23T01:04:46.614Z,85.52
2019-01-23T01:05:46.652Z,84.99
2019-01-23T01:06:46.618Z,85.94
2019-01-23T01:07:46.587Z,85.84
2019-01-23T01:08:46.568Z,85.35
2019-01-23T01:09:46.568Z,85.66
2019-01-23T01:10:46.549Z,86.09
2019-01-23T01:11:46.565Z,86.30
2019-01-23T01:12:46.552Z,86.30
2019-01-23T01:13:46.530Z,85.66
2019-01-23T01:14:46.506Z,86.30
2019-01-23T01:15:46.520Z,85.88
2019-01-23T01:16:46.600Z,86.41
2019-01-23T01:17:46.483Z,86.41
2019-01-23T01:18:46.461Z,86.83
2019-01-23T01:19:46.457Z,86.72
2019-01-23T01:20:46.444Z,86.83
2019-01-23T01:21:46.451Z,85.56
2019-01-23T01:22:46.427Z,86.19
2019-01-23T01:23:46.419Z,86.19
2019-01-23T01:24:46.408Z,86.09
2019-01-23T01:25:46.442Z,85.88
2019-01-23T01:26:46.407Z,86.30
2019-01-23T01:27:46.397Z,86.61
2019-01-23T01:28:46.365Z,86.61
2019-01-23T01:29:46.361Z,86.09
2019-01-23T01:30:46.344Z,85.88
2019-01-23T01:31:46.389Z,86.05
2019-01-23T01:32:46.352Z,85.31
2019-01-23T01:33:46.318Z,85.41
2019-01-23T01:34:46.303Z,85.41
2019-01-23T01:35:46.298Z,85.56
2019-01-23T01:36:46.284Z,85.46
2019-01-23T01:37:46.295Z,85.56
2019-01-23T01:38:46.262Z,85.73
2019-01-23T01:39:46.254Z,85.63
2019-01-23T01:40:46.242Z,85.31
2019-01-23T01:41:46.232Z,85.21
2019-01-23T01:42:46.244Z,85.21
2019-01-23T01:43:46.214Z,85.56
2019-01-23T01:44:46.205Z,85.46
2019-01-23T01:45:46.187Z,85.88
2019-01-23T01:46:46.184Z,85.98
2019-01-23T01:47:46.201Z,85.88
2019-01-23T01:48:46.195Z,86.09
2019-01-23T01:49:46.154Z,85.88
2019-01-23T01:50:46.143Z,85.88
2019-01-23T01:51:46.128Z,85.98
2019-01-23T01:52:46.150Z,85.56
2019-01-23T01:53:46.118Z,85.66
2019-01-23T01:54:46.102Z,85.88
2019-01-23T01:55:46.090Z,85.56
2019-01-23T01:56:46.079Z,85.35
2019-01-23T01:57:46.090Z,85.46
2019-01-23T01:58:46.057Z,86.09
2019-01-23T01:59:46.061Z,85.66
2019-01-23T02:00:46.042Z,86.09
2019-01-23T02:01:46.026Z,86.19
2019-01-23T02:02:46.040Z,85.77
2019-01-23T02:03:46.021Z,85.77
2019-01-23T02:04:45.997Z,86.09
2019-01-23T02:05:45.991Z,86.13
2019-01-23T02:06:45.975Z,86.30
2019-01-23T02:07:45.968Z,86.09
2019-01-23T02:08:45.982Z,86.34
2019-01-23T02:09:45.952Z,85.88
2019-01-23T02:10:45.944Z,86.30
2019-01-23T02:11:45.936Z,85.88
2019-01-23T02:12:45.917Z,86.09
2019-01-23T02:13:45.926Z,85.88
2019-01-23T02:14:45.933Z,86.09
2019-01-23T02:15:45.882Z,85.98
2019-01-23T02:16:45.873Z,85.98
2019-01-23T02:17:45.882Z,86.23
2019-01-23T02:18:45.892Z,86.30
2019-01-23T02:19:45.844Z,85.77
2019-01-23T02:20:45.839Z,86.30
2019-01-23T02:21:45.823Z,86.61
2019-01-23T02:22:45.812Z,86.61
2019-01-23T02:23:45.826Z,85.66
2019-01-23T02:24:45.798Z,85.88
2019-01-23T02:25:45.782Z,85.56
2019-01-23T02:26:45.787Z,85.24
2019-01-23T02:27:45.764Z,86.09
2019-01-23T02:28:45.802Z,86.19
2019-01-23T02:29:45.741Z,86.19
2019-01-23T02:30:45.730Z,85.98
2019-01-23T02:31:45.723Z,85.03
2019-01-23T02:32:45.718Z,85.56
2019-01-23T02:33:45.720Z,85.56
2019-01-23T02:34:45.698Z,86.19
2019-01-23T02:35:45.680Z,86.09
2019-01-23T02:36:45.666Z,86.09
2019-01-23T02:37:45.659Z,85.98
2019-01-23T02:38:45.669Z,86.41
2019-01-23T02:39:45.640Z,86.30
2019-01-23T02:40:45.633Z,85.98
2019-01-23T02:41:45.620Z,85.88
2019-01-23T02:42:45.606Z,85.77
2019-01-23T02:43:45.622Z,85.94
2019-01-23T02:44:45.588Z,85.94
2019-01-23T02:45:45.581Z,85.98
2019-01-23T02:46:45.576Z,85.88
2019-01-23T02:47:45.562Z,85.21
2019-01-23T02:48:45.572Z,85.84
2019-01-23T02:49:45.539Z,85.73
2019-01-23T02:50:45.532Z,85.21
2019-01-23T02:51:45.521Z,85.06
2019-01-23T02:52:45.515Z,84.78
2019-01-23T02:53:45.525Z,84.78
2019-01-23T02:54:45.510Z,84.99
2019-01-23T02:55:45.474Z,84.78
2019-01-23T02:56:45.463Z,84.99
2019-01-23T02:57:45.454Z,84.99
2019-01-23T02:58:45.442Z,84.99
2019-01-23T02:59:45.450Z,84.78
2019-01-23T03:00:45.423Z,84.89
2019-01-23T03:01:45.418Z,84.99
2019-01-23T03:02:45.404Z,85.21
2019-01-23T03:03:45.405Z,84.78
2019-01-23T03:04:45.413Z,85.10
2019-01-23T03:05:45.377Z,84.99
2019-01-23T03:06:45.360Z,85.41
2019-01-23T03:07:45.375Z,85.41
2019-01-23T03:08:45.346Z,84.89
2019-01-23T03:09:45.354Z,84.78
2019-01-23T03:10:45.317Z,84.67
2019-01-23T03:11:45.331Z,84.67
2019-01-23T03:12:45.308Z,84.67
2019-01-23T03:13:45.292Z,84.67
2019-01-23T03:14:45.314Z,84.78
2019-01-23T03:15:45.273Z,84.99
2019-01-23T03:16:45.255Z,84.78
2019-01-23T03:17:45.254Z,84.32
2019-01-23T03:18:45.246Z,84.25
2019-01-23T03:19:45.257Z,84.67
2019-01-23T03:20:45.222Z,84.50
2019-01-23T03:21:45.214Z,84.46
2019-01-23T03:22:45.202Z,84.67
2019-01-23T03:23:45.197Z,84.67
2019-01-23T03:24:45.199Z,84.89
2019-01-23T03:25:45.168Z,84.67
2019-01-23T03:26:45.156Z,84.46
2019-01-23T03:27:45.157Z,84.46
2019-01-23T03:28:45.144Z,84.67
2019-01-23T03:29:45.191Z,84.78
2019-01-23T03:30:45.127Z,85.21
2019-01-23T03:31:45.113Z,85.52
2019-01-23T03:32:45.099Z,85.21
2019-01-23T03:33:45.102Z,85.21
2019-01-23T03:34:45.110Z,84.67
2019-01-23T03:35:45.069Z,84.67
2019-01-23T03:36:45.064Z,84.46
2019-01-23T03:37:45.046Z,84.57
2019-01-23T03:38:45.044Z,84.57
2019-01-23T03:39:45.035Z,84.46
2019-01-23T03:40:45.045Z,84.89
2019-01-23T03:41:45.010Z,84.71
2019-01-23T03:42:44.996Z,85.56
2019-01-23T03:43:44.982Z,85.24
2019-01-23T03:44:44.988Z,85.56
2019-01-23T03:45:44.985Z,85.46
2019-01-23T03:46:44.953Z,85.24
2019-01-23T03:47:44.943Z,85.35
2019-01-23T03:48:44.937Z,85.35
2019-01-23T03:49:44.931Z,85.77
2019-01-23T03:50:44.931Z,86.09
2019-01-23T03:51:44.904Z,85.66
2019-01-23T03:52:44.894Z,85.88
2019-01-23T03:53:44.893Z,85.88
2019-01-23T03:54:44.875Z,85.66
2019-01-23T03:55:44.875Z,86.19
2019-01-23T03:56:44.851Z,85.94
2019-01-23T03:57:44.841Z,85.84
2019-01-23T03:58:44.825Z,85.94
2019-01-23T03:59:44.821Z,85.84
2019-01-23T04:00:44.827Z,86.05
2019-01-23T04:01:44.800Z,85.94
2019-01-23T04:02:44.797Z,86.16
2019-01-23T04:03:44.781Z,85.84
2019-01-23T04:04:44.774Z,85.31
2019-01-23T04:05:44.775Z,85.21
2019-01-23T04:06:44.759Z,84.67
2019-01-23T04:07:44.748Z,84.67
2019-01-23T04:08:44.739Z,84.57
2019-01-23T04:09:44.736Z,84.57
2019-01-23T04:10:44.727Z,84.46
2019-01-23T04:11:44.697Z,84.46
2019-01-23T04:12:44.703Z,84.46
2019-01-23T04:13:44.679Z,84.46
2019-01-23T04:14:44.673Z,84.57
2019-01-23T04:15:44.678Z,84.57
2019-01-23T04:16:44.649Z,84.46
2019-01-23T04:17:44.638Z,84.67
2019-01-23T04:18:44.641Z,84.57
2019-01-23T04:19:44.621Z,84.67
2019-01-23T04:20:44.629Z,84.57
2019-01-23T04:21:44.598Z,83.94
2019-01-23T04:22:44.585Z,83.62
2019-01-23T04:23:44.583Z,83.87
2019-01-23T04:24:44.600Z,83.51
2019-01-23T04:25:44.579Z,83.40
2019-01-23T04:26:44.551Z,82.73
2019-01-23T04:27:44.552Z,82.67
2019-01-23T04:28:44.525Z,83.30
2019-01-23T04:29:44.517Z,82.98
2019-01-23T04:30:44.530Z,82.98
2019-01-23T04:31:44.493Z,82.98
2019-01-23T04:32:44.489Z,82.77
2019-01-23T04:33:44.469Z,82.77
2019-01-23T04:34:44.471Z,82.98
2019-01-23T04:35:44.467Z,82.88
2019-01-23T04:36:44.452Z,83.09
2019-01-23T04:37:44.432Z,82.98
2019-01-23T04:38:44.427Z,83.23
2019-01-23T04:39:44.418Z,83.44
2019-01-23T04:40:44.427Z,83.55
2019-01-23T04:41:44.393Z,83.55
2019-01-23T04:42:44.385Z,83.34
2019-01-23T04:43:44.371Z,83.44
2019-01-23T04:44:44.367Z,82.92
2019-01-23T04:45:44.383Z,82.92
2019-01-23T04:46:44.344Z,83.23
2019-01-23T04:47:44.336Z,83.02
2019-01-23T04:48:44.319Z,83.23
2019-01-23T04:49:44.320Z,83.48
2019-01-23T04:50:44.312Z,83.76
2019-01-23T04:51:44.320Z,84.08
2019-01-23T04:52:44.276Z,83.97
2019-01-23T04:53:44.267Z,83.55
2019-01-23T04:54:44.263Z,83.55
2019-01-23T04:55:44.288Z,83.12
2019-01-23T04:56:44.263Z,83.23
2019-01-23T04:57:44.229Z,83.44
2019-01-23T04:58:44.219Z,83.65
2019-01-23T04:59:47.029Z,83.65
2019-01-23T05:00:44.197Z,83.76
2019-01-23T05:01:44.205Z,83.65
2019-01-23T05:02:44.191Z,83.65
2019-01-23T05:03:44.165Z,83.55
2019-01-23T05:04:44.159Z,83.44
2019-01-23T05:05:44.149Z,83.23
2019-01-23T05:06:44.181Z,83.27
2019-01-23T05:07:44.138Z,83.17
2019-01-23T05:08:44.113Z,83.12
2019-01-23T05:09:44.113Z,83.27
2019-01-23T05:10:44.097Z,82.95
2019-01-23T05:11:44.107Z,83.06
2019-01-23T05:12:44.081Z,83.06
2019-01-23T05:13:44.079Z,83.09
2019-01-23T05:14:44.068Z,82.99
2019-01-23T05:15:44.045Z,82.85
2019-01-23T05:16:44.064Z,83.20
2019-01-23T05:17:44.033Z,83.09
2019-01-23T05:18:44.030Z,83.06
2019-01-23T05:19:44.003Z,81.93
2019-01-23T05:20:43.991Z,82.04
2019-01-23T05:21:43.990Z,82.67
2019-01-23T05:22:44.002Z,82.89
2019-01-23T05:23:43.982Z,82.78
2019-01-23T05:24:43.960Z,83.09
2019-01-23T05:25:43.945Z,83.52
2019-01-23T05:26:43.931Z,83.41
2019-01-23T05:27:43.947Z,83.52
2019-01-23T05:28:44.020Z,83.34
2019-01-23T05:29:43.958Z,82.92
2019-01-23T05:30:43.895Z,82.99
2019-01-23T05:31:43.889Z,83.41
2019-01-23T05:32:43.940Z,83.13
2019-01-23T05:33:43.872Z,82.99
2019-01-23T05:34:43.861Z,83.56
2019-01-23T05:35:43.858Z,83.09
2019-01-23T05:36:43.833Z,82.46
2019-01-23T05:37:43.855Z,82.04
2019-01-23T05:38:43.813Z,82.25
2019-01-23T05:39:44.940Z,82.67
2019-01-23T05:40:43.801Z,82.04
2019-01-23T05:41:43.775Z,81.19
2019-01-23T05:42:43.789Z,81.82
2019-01-23T05:43:43.767Z,81.72
2019-01-23T05:44:43.817Z,81.79
2019-01-23T05:45:43.747Z,81.82
2019-01-23T05:46:43.771Z,82.04
2019-01-23T05:47:43.749Z,81.79
2019-01-23T05:48:43.719Z,81.40
2019-01-23T05:49:43.717Z,81.58
2019-01-23T05:50:43.689Z,81.47
2019-01-23T05:51:43.681Z,81.58
2019-01-23T05:52:43.668Z,81.15
2019-01-23T05:53:43.701Z,81.05
2019-01-23T05:54:43.672Z,81.05
2019-01-23T05:55:43.653Z,81.05
2019-01-23T05:56:43.626Z,81.37
2019-01-23T05:57:43.619Z,81.19
2019-01-23T05:58:43.628Z,80.94
2019-01-23T05:59:43.604Z,81.40
2019-01-23T06:00:43.586Z,81.82
2019-01-23T06:01:43.586Z,81.82
2019-01-23T06:02:43.558Z,82.50
2019-01-23T06:03:43.571Z,81.86
2019-01-23T06:04:43.550Z,82.99
2019-01-23T06:05:43.541Z,83.09
2019-01-23T06:06:43.526Z,81.79
2019-01-23T06:07:43.540Z,81.72
2019-01-23T06:08:43.506Z,82.04
2019-01-23T06:09:43.512Z,81.93
2019-01-23T06:10:43.499Z,82.04
2019-01-23T06:11:43.473Z,81.65
2019-01-23T06:12:43.483Z,82.14
2019-01-23T06:13:43.474Z,82.60
2019-01-23T06:14:43.480Z,82.50
2019-01-23T06:15:43.444Z,81.97
2019-01-23T06:16:43.427Z,81.97
2019-01-23T06:17:43.416Z,82.92
2019-01-23T06:18:43.424Z,82.92
2019-01-23T06:19:43.418Z,82.92
2019-01-23T06:20:43.375Z,83.24
2019-01-23T06:21:43.376Z,82.60
2019-01-23T06:22:43.373Z,83.56
2019-01-23T06:23:43.402Z,83.13
2019-01-23T06:24:43.360Z,82.71
2019-01-23T06:25:43.374Z,83.13
2019-01-23T06:26:43.331Z,83.38
2019-01-23T06:27:43.363Z,82.81
2019-01-23T06:28:43.306Z,83.17
2019-01-23T06:29:43.295Z,83.38
2019-01-23T06:30:43.294Z,82.86
2019-01-23T06:31:43.271Z,83.28
2019-01-23T06:32:43.259Z,83.38
2019-01-23T06:33:43.245Z,83.45
2019-01-23T06:34:43.242Z,83.56
2019-01-23T06:35:43.244Z,83.56
2019-01-23T06:36:43.231Z,83.13
2019-01-23T06:37:43.204Z,83.34
2019-01-23T06:38:43.207Z,82.81
2019-01-23T06:39:43.188Z,82.81
2019-01-23T06:40:43.206Z,83.09
2019-01-23T06:41:43.175Z,82.78
2019-01-23T06:42:43.179Z,83.13
2019-01-23T06:43:43.182Z,82.50
2019-01-23T06:44:43.146Z,82.18
2019-01-23T06:45:43.156Z,82.50
2019-01-23T06:46:43.114Z,82.18
2019-01-23T06:47:43.113Z,82.92
2019-01-23T06:48:43.106Z,83.03
2019-01-23T06:49:43.108Z,83.03
2019-01-23T06:50:43.146Z,83.09
2019-01-23T06:51:43.143Z,82.57
2019-01-23T06:52:43.056Z,82.57
2019-01-23T06:53:43.064Z,82.89
2019-01-23T06:54:43.062Z,82.46
2019-01-23T06:55:43.024Z,82.14
2019-01-23T06:56:43.036Z,81.93
2019-01-23T06:57:43.002Z,82.14
2019-01-23T06:58:43.008Z,82.46
2019-01-23T06:59:42.988Z,81.62
2019-01-23T07:00:42.972Z,81.82
2019-01-23T07:01:42.994Z,81.93
2019-01-23T07:02:42.955Z,82.57
2019-01-23T07:03:42.948Z,82.35
2019-01-23T07:04:42.926Z,82.25
2019-01-23T07:05:42.926Z,82.46
2019-01-23T07:06:42.978Z,82.35
2019-01-23T07:07:42.904Z,82.25
2019-01-23T07:08:42.907Z,82.25
2019-01-23T07:09:42.911Z,82.35
2019-01-23T07:10:42.874Z,82.25
2019-01-23T07:11:42.873Z,82.14
2019-01-23T07:12:42.908Z,82.35
2019-01-23T07:13:42.872Z,82.25
2019-01-23T07:14:42.844Z,82.35
2019-01-23T07:15:42.824Z,82.04
2019-01-23T07:16:42.820Z,82.00
2019-01-23T07:17:42.842Z,81.72
2019-01-23T07:18:42.826Z,80.83
2019-01-23T07:19:42.811Z,82.04
2019-01-23T07:20:42.798Z,81.79
2019-01-23T07:21:42.770Z,82.10
2019-01-23T07:22:43.160Z,81.58
2019-01-23T07:23:42.742Z,81.62
2019-01-23T07:24:42.987Z,82.14
2019-01-23T07:25:42.727Z,81.72
2019-01-23T07:26:42.717Z,82.04
2019-01-23T07:27:42.788Z,82.14
2019-01-23T07:28:49.016Z,82.35
2019-01-23T07:29:43.726Z,82.35
2019-01-23T07:30:42.667Z,81.97
2019-01-23T07:31:42.681Z,82.81
2019-01-23T07:32:42.704Z,83.24
2019-01-23T07:33:42.668Z,82.71
2019-01-23T07:34:42.633Z,82.89
2019-01-23T07:35:42.644Z,82.74
2019-01-23T07:36:42.602Z,82.46
2019-01-23T07:37:42.634Z,81.93
2019-01-23T07:38:42.660Z,82.32
2019-01-23T07:39:42.578Z,82.42
2019-01-23T07:40:42.578Z,82.53
2019-01-23T07:41:42.550Z,82.10
2019-01-23T07:42:42.570Z,80.83
2019-01-23T07:43:42.554Z,82.00
2019-01-23T07:44:42.597Z,81.68
2019-01-23T07:45:42.519Z,82.00
2019-01-23T07:46:42.525Z,81.82
2019-01-23T07:47:42.494Z,82.14
2019-01-23T07:48:42.522Z,82.25
2019-01-23T07:49:42.514Z,81.93
2019-01-23T07:50:42.464Z,82.10
2019-01-23T07:51:42.465Z,82.10
2019-01-23T07:52:42.440Z,82.42
2019-01-23T07:53:42.442Z,82.32
2019-01-23T07:54:42.500Z,82.32
2019-01-23T07:55:42.437Z,82.21
2019-01-23T07:56:42.416Z,82.42
2019-01-23T07:57:42.404Z,81.79
2019-01-23T07:58:42.401Z,81.90
2019-01-23T07:59:42.389Z,82.42
2019-01-23T08:00:42.357Z,82.64
2019-01-23T08:01:42.349Z,82.70
2019-01-23T08:02:42.410Z,82.42
2019-01-23T08:03:42.342Z,81.75
2019-01-23T08:04:42.386Z,81.79
2019-01-23T08:05:42.306Z,82.32
2019-01-23T08:06:42.331Z,82.07
2019-01-23T08:08:43.444Z,82.39
2019-01-23T08:09:42.331Z,81.82
2019-01-23T08:10:42.424Z,82.03
2019-01-23T08:11:42.302Z,81.29
2019-01-23T08:12:42.255Z,81.29
2019-01-23T08:13:42.238Z,81.29
2019-01-23T08:14:42.315Z,81.40
2019-01-23T08:15:42.227Z,81.29
2019-01-23T08:16:42.236Z,81.29
2019-01-23T08:17:42.220Z,81.50
2019-01-23T08:18:42.204Z,81.71
2019-01-23T08:19:42.159Z,81.61
2019-01-23T08:20:42.189Z,81.08
2019-01-23T08:21:42.175Z,81.40
2019-01-23T08:22:42.145Z,81.71
2019-01-23T08:23:42.171Z,81.40
2019-01-23T08:24:42.134Z,81.65
2019-01-23T08:25:42.101Z,81.93
2019-01-23T08:26:42.144Z,82.03
2019-01-23T08:27:42.937Z,81.61
2019-01-23T08:28:42.080Z,81.40
2019-01-23T08:29:42.062Z,81.71
2019-01-23T08:30:42.051Z,81.19
2019-01-23T08:31:42.073Z,81.82
2019-01-23T08:32:42.035Z,81.61
2019-01-23T08:33:42.045Z,82.03
2019-01-23T08:34:42.016Z,82.24
2019-01-23T08:35:42.006Z,82.35
2019-01-23T08:36:42.006Z,82.14
2019-01-23T08:37:42.041Z,82.03
2019-01-23T08:38:41.968Z,81.71
2019-01-23T08:39:41.965Z,82.03
2019-01-23T08:40:41.957Z,81.93
2019-01-23T08:41:41.987Z,81.71
2019-01-23T08:42:41.938Z,81.15
2019-01-23T08:43:41.944Z,81.68
2019-01-23T08:44:41.907Z,81.46
2019-01-23T08:45:41.899Z,81.46
2019-01-23T08:46:41.912Z,81.46
2019-01-23T08:47:41.894Z,81.36
2019-01-23T08:48:41.867Z,81.15
2019-01-23T08:49:41.856Z,81.68
2019-01-23T08:50:41.845Z,81.68
2019-01-23T08:51:41.893Z,81.26
2019-01-23T08:52:41.841Z,81.26
2019-01-23T08:53:41.845Z,81.04
2019-01-23T08:54:41.850Z,81.36
2019-01-23T08:55:41.804Z,80.73
2019-01-23T08:56:41.837Z,81.68
2019-01-23T08:57:41.788Z,81.57
2019-01-23T08:58:41.780Z,81.26
2019-01-23T08:59:41.767Z,81.04
2019-01-23T09:00:45.811Z,81.15
2019-01-23T09:01:41.765Z,80.94
2019-01-23T09:02:41.741Z,80.73
2019-01-23T09:03:41.724Z,81.46
2019-01-23T09:04:41.719Z,81.04
2019-01-23T09:05:41.705Z,81.26
2019-01-23T09:06:41.703Z,81.04
2019-01-23T09:07:41.705Z,80.94
2019-01-23T09:08:41.685Z,81.26
2019-01-23T09:09:41.664Z,80.69
2019-01-23T09:10:41.671Z,80.58
2019-01-23T09:11:41.653Z,80.37
2019-01-23T09:12:41.652Z,80.37
2019-01-23T09:13:41.622Z,80.13
2019-01-23T09:14:41.601Z,79.81
2019-01-23T09:15:41.602Z,79.39
2019-01-23T09:16:41.625Z,79.39
2019-01-23T09:17:41.570Z,79.17
2019-01-23T09:18:41.575Z,79.03
2019-01-23T09:19:41.580Z,79.35
2019-01-23T09:20:41.543Z,78.82
2019-01-23T09:21:41.572Z,78.72
2019-01-23T09:22:41.557Z,78.72
2019-01-23T09:23:41.510Z,78.93
2019-01-23T09:24:41.538Z,78.82
2019-01-23T09:25:41.492Z,78.93
2019-01-23T09:26:41.479Z,78.68
2019-01-23T09:27:41.474Z,78.26
2019-01-23T09:28:41.482Z,78.47
2019-01-23T09:29:41.452Z,78.47
2019-01-23T09:30:41.459Z,78.30
2019-01-23T09:31:41.426Z,78.16
2019-01-23T09:32:41.449Z,78.16
2019-01-23T09:33:41.431Z,78.26
2019-01-23T09:34:41.402Z,78.36
2019-01-23T09:35:41.380Z,78.05
2019-01-23T09:36:41.400Z,78.47
2019-01-23T09:37:41.368Z,78.26
2019-01-23T09:38:41.407Z,78.16
2019-01-23T09:39:50.427Z,78.05
2019-01-23T09:40:41.326Z,77.94
2019-01-23T09:41:41.343Z,77.70
2019-01-23T09:42:41.340Z,77.59
2019-01-23T09:43:41.351Z,77.17
2019-01-23T09:44:41.307Z,77.28
2019-01-23T09:45:41.293Z,77.31
2019-01-23T09:46:41.269Z,77.28
2019-01-23T09:47:41.263Z,77.52
2019-01-23T09:48:41.293Z,77.31
2019-01-23T09:49:41.303Z,77.73
2019-01-23T09:50:41.237Z,78.05
2019-01-23T09:51:41.246Z,77.42
2019-01-23T09:52:41.217Z,78.05
2019-01-23T09:53:41.207Z,77.63
2019-01-23T09:54:41.221Z,77.73
2019-01-23T09:55:41.182Z,78.05
2019-01-23T09:56:41.194Z,77.73
2019-01-23T09:57:41.193Z,77.63
2019-01-23T09:58:41.149Z,77.63
2019-01-23T09:59:41.213Z,77.63
2019-01-23T10:00:41.136Z,77.94
2019-01-23T10:01:41.113Z,78.19
2019-01-23T10:02:41.109Z,78.19
2019-01-23T10:03:41.093Z,78.30
2019-01-23T10:04:41.084Z,78.40
2019-01-23T10:05:41.100Z,78.51
2019-01-23T10:06:41.131Z,78.36
2019-01-23T10:07:41.058Z,78.47
2019-01-23T10:08:41.055Z,77.94
2019-01-23T10:09:41.071Z,77.59
2019-01-23T10:10:41.064Z,77.59
2019-01-23T10:11:41.024Z,77.14
2019-01-23T10:12:41.015Z,76.40
2019-01-23T10:13:40.991Z,75.84
2019-01-23T10:14:40.987Z,75.42
2019-01-23T10:15:40.996Z,75.21
2019-01-23T10:16:40.967Z,75.21
2019-01-23T10:17:40.959Z,74.65
2019-01-23T10:18:40.946Z,74.37
2019-01-23T10:20:41.948Z,75.31
2019-01-23T10:21:40.935Z,75.03
2019-01-23T10:22:40.923Z,75.24
2019-01-23T10:24:42.057Z,75.80
2019-01-23T10:25:41.061Z,75.98
2019-01-23T10:26:41.036Z,75.66
2019-01-23T10:27:41.028Z,75.34
2019-01-23T10:28:41.048Z,75.87
2019-01-23T10:29:40.991Z,75.45
2019-01-23T10:30:40.879Z,75.24
2019-01-23T10:31:40.842Z,75.03
2019-01-23T10:32:40.812Z,75.13
2019-01-23T10:33:40.802Z,75.10
2019-01-23T10:34:40.777Z,74.68
2019-01-23T10:35:40.775Z,73.73
2019-01-23T10:36:40.789Z,73.73
2019-01-23T10:37:40.759Z,74.15
2019-01-23T10:38:40.752Z,74.15
2019-01-23T10:39:40.728Z,74.05
2019-01-23T10:40:40.737Z,73.31
2019-01-23T10:41:40.735Z,73.31
2019-01-23T10:42:40.717Z,73.31
2019-01-23T10:43:40.702Z,73.63
2019-01-23T10:44:40.674Z,73.83
2019-01-23T10:45:40.663Z,73.52
2019-01-23T10:46:41.495Z,73.41
2019-01-23T10:47:40.654Z,73.31
2019-01-23T10:48:40.682Z,73.52
2019-01-23T10:49:40.638Z,73.73
2019-01-23T10:50:40.614Z,73.94
2019-01-23T10:51:40.660Z,74.05
2019-01-23T10:52:40.605Z,73.17
2019-01-23T10:53:40.595Z,73.70
2019-01-23T10:54:40.634Z,73.21
2019-01-23T10:55:40.584Z,72.96
2019-01-23T10:56:40.577Z,72.96
2019-01-23T10:57:40.572Z,72.86
2019-01-23T10:58:40.536Z,72.44
2019-01-23T10:59:40.631Z,72.54
2019-01-23T11:00:40.526Z,72.44
2019-01-23T11:01:40.515Z,72.44
2019-01-23T11:02:40.509Z,72.22
2019-01-23T11:03:40.481Z,72.50
2019-01-23T11:04:41.691Z,72.72
2019-01-23T11:05:40.460Z,71.73
2019-01-23T11:06:40.470Z,71.31
2019-01-23T11:07:40.476Z,71.53
2019-01-23T11:08:40.427Z,71.21
2019-01-23T11:09:40.435Z,70.97
2019-01-23T11:10:40.407Z,70.34
2019-01-23T11:11:40.403Z,70.55
2019-01-23T11:12:40.407Z,69.39
2019-01-23T11:13:40.423Z,69.39
2019-01-23T11:14:40.362Z,69.46
2019-01-23T11:15:40.358Z,70.13
2019-01-23T11:16:40.375Z,70.02
2019-01-23T11:17:40.351Z,70.13
2019-01-23T11:18:40.358Z,69.46
2019-01-23T11:19:40.343Z,69.15
2019-01-23T11:20:40.303Z,69.15
2019-01-23T11:21:40.299Z,68.94
2019-01-23T11:22:40.296Z,68.94
2019-01-23T11:23:40.309Z,68.94
2019-01-23T11:24:40.322Z,68.94
2019-01-23T11:25:40.251Z,68.59
2019-01-23T11:26:40.252Z,68.49
2019-01-23T11:27:40.232Z,68.49
2019-01-23T11:28:40.252Z,68.14
2019-01-23T11:29:40.213Z,67.72
2019-01-23T11:30:40.199Z,67.51
2019-01-23T11:31:40.189Z,67.80
2019-01-23T11:32:40.177Z,66.79
2019-01-23T11:33:40.223Z,66.24
2019-01-23T11:34:40.165Z,64.45
2019-01-23T11:35:40.154Z,63.79
2019-01-23T11:36:40.144Z,63.38
2019-01-23T11:37:40.133Z,62.51
2019-01-23T11:38:40.137Z,62.80
2019-01-23T11:39:40.129Z,62.27
2019-01-23T11:40:40.133Z,61.27
2019-01-23T11:41:40.101Z,60.41
2019-01-23T11:42:40.084Z,59.86
2019-01-23T11:43:40.068Z,58.87
2019-01-23T11:44:40.075Z,58.11
2019-01-23T11:45:40.051Z,58.61
2019-01-23T11:46:40.042Z,58.81
2019-01-23T11:47:40.042Z,60.15
2019-01-23T11:48:40.024Z,59.94
2019-01-23T11:49:40.037Z,60.54
2019-01-23T11:50:40.009Z,59.78
2019-01-23T11:51:39.986Z,59.47
2019-01-23T11:52:39.983Z,59.58
2019-01-23T11:53:39.964Z,59.86
2019-01-23T11:54:39.949Z,60.60
2019-01-23T11:55:39.977Z,61.02
2019-01-23T11:56:39.933Z,60.60
2019-01-23T11:57:39.916Z,60.71
2019-01-23T11:58:39.909Z,60.36
2019-01-23T11:59:39.907Z,60.18
2019-01-23T12:00:39.914Z,61.05
2019-01-23T12:01:39.874Z,61.60
2019-01-23T12:02:39.863Z,62.43
2019-01-23T12:03:39.855Z,62.70
2019-01-23T12:04:39.855Z,63.06
2019-01-23T12:05:39.871Z,62.19
2019-01-23T12:06:39.823Z,62.09
2019-01-23T12:07:39.815Z,62.81
2019-01-23T12:08:39.808Z,64.06
2019-01-23T12:09:39.804Z,64.94
2019-01-23T12:10:39.782Z,65.67
2019-01-23T12:11:39.795Z,65.04
2019-01-23T12:12:39.764Z,64.48
2019-01-23T12:13:39.752Z,64.48
2019-01-23T12:14:39.748Z,64.62
2019-01-23T12:15:41.001Z,65.56
2019-01-23T12:16:39.763Z,64.59
2019-01-23T12:17:39.713Z,65.04
2019-01-23T12:18:39.697Z,65.67
2019-01-23T12:19:39.693Z,66.01
2019-01-23T12:20:39.681Z,66.33
2019-01-23T12:21:39.693Z,66.46
2019-01-23T12:22:39.664Z,65.83
2019-01-23T12:23:39.657Z,66.17
2019-01-23T12:24:39.640Z,66.60
2019-01-23T12:25:39.630Z,66.52
2019-01-23T12:26:39.661Z,66.63
2019-01-23T12:27:39.603Z,66.84
2019-01-23T12:28:39.600Z,67.40
2019-01-23T12:29:39.598Z,67.79
2019-01-23T12:30:39.569Z,67.29
2019-01-23T12:31:39.580Z,67.92
2019-01-23T12:32:39.553Z,67.60
2019-01-23T12:33:39.539Z,68.16
2019-01-23T12:34:39.542Z,67.85
2019-01-23T12:35:39.520Z,68.51
2019-01-23T12:36:39.558Z,68.82
2019-01-23T12:37:39.501Z,69.38
2019-01-23T12:38:39.499Z,69.49
2019-01-23T12:39:39.481Z,69.07
2019-01-23T12:40:39.473Z,69.38
2019-01-23T12:41:39.496Z,69.59
2019-01-23T12:42:39.447Z,70.33
2019-01-23T12:43:39.442Z,70.22
2019-01-23T12:44:39.463Z,70.12
2019-01-23T12:45:39.450Z,70.12
2019-01-23T12:46:39.430Z,70.01
2019-01-23T12:47:39.399Z,70.54
2019-01-23T12:48:39.394Z,70.36
2019-01-23T12:49:39.375Z,69.91
2019-01-23T12:50:39.375Z,69.73
2019-01-23T12:51:39.513Z,71.23
2019-01-23T12:52:39.358Z,70.60
2019-01-23T12:53:39.335Z,70.39
2019-01-23T12:54:39.323Z,71.34
2019-01-23T12:55:39.318Z,71.03